createdAt,value
2019-04-11T00:01:14.151Z,65.78
2019-04-11T00:03:41.690Z,65.81
2019-04-11T00:06:08.044Z,65.87
2019-04-11T00:08:37.007Z,66.15
2019-04-11T00:11:03.788Z,66.21
2019-04-11T00:13:34.323Z,66.33
2019-04-11T00:15:57.851Z,66.27
2019-04-11T00:18:25.263Z,66.51
2019-04-11T00:20:52.825Z,66.93
2019-04-11T00:23:20.104Z,67.08
2019-04-11T00:25:47.541Z,66.90
2019-04-11T00:28:15.341Z,66.43
2019-04-11T00:30:42.373Z,66.13
2019-04-11T00:33:09.890Z,66.00
2019-04-11T00:35:37.250Z,65.83
2019-04-11T00:38:05.555Z,65.84
2019-04-11T00:40:33.216Z,66.21
2019-04-11T00:42:59.519Z,66.47
2019-04-11T00:45:27.560Z,66.51
2019-04-11T00:47:55.311Z,66.35
2019-04-11T00:50:21.775Z,66.49
2019-04-11T00:52:49.633Z,66.70
2019-04-11T00:55:17.548Z,66.68
2019-04-11T00:57:45.121Z,66.65
2019-04-11T01:00:11.661Z,66.66
2019-04-11T01:02:40.709Z,66.77
2019-04-11T01:05:07.560Z,67.14
2019-04-11T01:07:35.236Z,67.38
2019-04-11T01:10:01.457Z,67.52
2019-04-11T01:12:28.977Z,67.58
2019-04-11T01:14:57.298Z,67.57
2019-04-11T01:17:23.759Z,67.51
2019-04-11T01:19:51.199Z,67.59
2019-04-11T01:22:18.640Z,67.53
2019-04-11T01:24:46.102Z,67.47
2019-04-11T01:27:13.951Z,67.12
2019-04-11T01:29:41.861Z,67.06
2019-04-11T01:32:08.389Z,66.87
2019-04-11T01:34:36.996Z,66.96
2019-04-11T01:37:03.787Z,67.36
2019-04-11T01:39:33.226Z,67.65
2019-04-11T01:42:00.789Z,67.77
2019-04-11T01:44:28.424Z,68.02
2019-04-11T01:46:56.297Z,68.10
2019-04-11T01:49:24.039Z,68.06
2019-04-11T01:51:50.804Z,68.12
2019-04-11T01:54:17.924Z,68.09
2019-04-11T01:56:45.457Z,68.24
2019-04-11T01:59:13.218Z,68.24
2019-04-11T02:01:41.108Z,68.18
2019-04-11T02:04:08.470Z,68.14
2019-04-11T02:06:36.243Z,67.99
2019-04-11T02:09:03.929Z,67.92
2019-04-11T02:11:31.736Z,67.86
2019-04-11T02:14:09.846Z,68.04
2019-04-11T02:16:25.683Z,68.34
2019-04-11T02:18:54.020Z,68.53
2019-04-11T02:21:20.531Z,68.78
2019-04-11T02:23:49.352Z,68.95
2019-04-11T02:26:20.932Z,69.04
2019-04-11T02:28:48.746Z,69.33
2019-04-11T02:31:17.143Z,69.43
2019-04-11T02:33:43.308Z,69.18
2019-04-11T02:36:11.828Z,69.11
2019-04-11T02:38:38.916Z,69.14
2019-04-11T02:41:06.473Z,69.14
2019-04-11T02:43:34.087Z,69.22
2019-04-11T02:46:12.987Z,69.35
2019-04-11T02:48:28.782Z,69.45
2019-04-11T02:50:56.321Z,69.65
2019-04-11T02:53:23.628Z,69.71
2019-04-11T02:55:49.740Z,69.74
2019-04-11T02:58:18.522Z,69.88
2019-04-11T03:00:45.082Z,69.79
2019-04-11T03:03:13.017Z,69.73
2019-04-11T03:05:39.481Z,69.69
2019-04-11T03:08:10.674Z,69.74
2019-04-11T03:10:35.485Z,69.70
2019-04-11T03:13:02.784Z,69.67
2019-04-11T03:15:46.661Z,69.53
2019-04-11T03:18:01.858Z,69.51
2019-04-11T03:20:31.411Z,69.78
2019-04-11T03:22:57.316Z,70.13
2019-04-11T03:25:18.531Z,70.40
2019-04-11T03:27:47.476Z,70.53
2019-04-11T03:30:17.257Z,70.45
2019-04-11T03:35:59.777Z,70.17
2019-04-11T03:37:58.702Z,69.96
2019-04-11T03:40:22.518Z,70.01
2019-04-11T03:42:43.316Z,69.88
2019-04-11T03:45:21.004Z,69.87
2019-04-11T03:47:37.371Z,69.62
2019-04-11T03:50:00.880Z,69.43
2019-04-11T03:52:20.848Z,69.26
2019-04-11T03:54:49.440Z,68.91
2019-04-11T03:57:16.015Z,68.71
2019-04-11T03:59:43.759Z,68.42
2019-04-11T04:02:12.418Z,68.03
2019-04-11T04:04:39.148Z,67.78
2019-04-11T04:07:06.784Z,67.51
2019-04-11T04:09:32.859Z,67.53
2019-04-11T04:12:00.370Z,67.49
2019-04-11T04:14:28.568Z,67.36
2019-04-11T04:17:01.184Z,67.17
2019-04-11T04:22:32.496Z,66.04
2019-04-11T04:25:01.094Z,65.78
2019-04-11T04:27:28.029Z,65.87
2019-04-11T04:29:57.661Z,65.84
2019-04-11T04:32:23.722Z,65.67
2019-04-11T04:34:50.822Z,65.58
2019-04-11T04:37:18.115Z,65.51
2019-04-11T04:39:45.684Z,65.30
2019-04-11T04:42:23.493Z,65.22
2019-04-11T04:44:40.937Z,65.16
2019-04-11T04:47:17.894Z,65.09
2019-04-11T04:49:36.459Z,65.09
2019-04-11T04:52:03.995Z,65.20
2019-04-11T04:54:30.758Z,65.28
2019-04-11T04:56:58.337Z,65.45
2019-04-11T04:59:25.233Z,65.86
2019-04-11T05:01:53.319Z,66.17
2019-04-11T05:04:21.034Z,66.37
2019-04-11T05:06:48.985Z,66.39
2019-04-11T05:09:14.784Z,66.39
2019-04-11T05:11:44.525Z,66.25
2019-04-11T05:14:10.508Z,66.11
2019-04-11T05:16:37.832Z,65.88
2019-04-11T05:19:06.514Z,65.72
2019-04-11T05:21:33.092Z,65.61
2019-04-11T05:24:00.192Z,65.65
2019-04-11T05:26:27.839Z,65.54
2019-04-11T05:28:55.244Z,65.15
2019-04-11T05:31:22.704Z,65.16
2019-04-11T05:33:49.868Z,65.04
2019-04-11T05:36:18.584Z,64.95
2019-04-11T05:38:44.702Z,65.08
2019-04-11T05:41:13.485Z,64.92
2019-04-11T05:43:41.274Z,64.69
2019-04-11T05:48:41.215Z,64.72
2019-04-11T05:51:08.866Z,64.68
2019-04-11T05:53:36.990Z,64.67
2019-04-11T05:56:03.739Z,64.54
2019-04-11T05:58:30.867Z,64.36
2019-04-11T06:01:14.527Z,64.21
2019-04-11T06:03:43.135Z,64.07
2019-04-11T06:06:24.586Z,63.93
2019-04-11T06:08:51.530Z,63.55
2019-04-11T06:11:22.220Z,63.40
2019-04-11T06:13:48.826Z,63.39
2019-04-11T06:16:15.108Z,63.54
2019-04-11T06:18:45.840Z,63.56
2019-04-11T06:21:13.771Z,63.30
2019-04-11T06:26:38.934Z,62.99
2019-04-11T06:29:22.840Z,62.91
2019-04-11T06:31:47.526Z,63.16
2019-04-11T06:34:15.568Z,63.43
2019-04-11T06:36:43.393Z,63.50
2019-04-11T06:42:04.143Z,62.65
2019-04-11T06:44:30.058Z,62.56
2019-04-11T06:49:58.609Z,61.76
2019-04-11T06:52:26.510Z,61.44
2019-04-11T06:54:56.617Z,61.64
2019-04-11T06:57:25.747Z,61.75
2019-04-11T06:59:52.995Z,62.07
2019-04-11T07:02:23.292Z,62.36
2019-04-11T07:07:41.020Z,61.55
2019-04-11T07:10:09.549Z,61.50
2019-04-11T07:12:47.127Z,61.48
2019-04-11T07:15:14.489Z,61.45
2019-04-11T07:17:48.095Z,61.83
2019-04-11T07:20:14.942Z,61.89
2019-04-11T07:22:48.824Z,62.07
2019-04-11T07:25:30.999Z,61.99
2019-04-11T07:27:59.344Z,62.08
2019-04-11T07:33:24.534Z,61.73
2019-04-11T07:35:59.736Z,61.61
2019-04-11T07:38:24.999Z,61.96
2019-04-11T07:40:56.075Z,62.25
2019-04-11T07:43:22.619Z,62.31
2019-04-11T07:45:49.863Z,62.62
2019-04-11T07:48:17.731Z,62.50
2019-04-11T07:50:46.432Z,62.34
2019-04-11T07:53:12.872Z,61.97
2019-04-11T07:55:40.062Z,61.49
2019-04-11T07:58:25.176Z,60.67
2019-04-11T08:01:03.621Z,59.77
2019-04-11T08:06:31.047Z,58.01
2019-04-11T08:09:13.168Z,57.79
2019-04-11T08:11:40.624Z,57.57
2019-04-11T08:14:10.540Z,57.39
2019-04-11T08:19:36.327Z,57.09
2019-04-11T08:22:12.217Z,57.47
2019-04-11T08:24:45.270Z,58.30
2019-04-11T08:27:27.583Z,58.87
2019-04-11T08:29:54.988Z,59.38
2019-04-11T08:32:27.940Z,59.67
2019-04-11T08:35:08.133Z,59.72
2019-04-11T08:37:39.999Z,59.86
2019-04-11T08:40:06.643Z,60.22
2019-04-11T08:42:37.755Z,60.17
2019-04-11T08:45:04.092Z,60.67
2019-04-11T08:47:41.979Z,61.12
2019-04-11T08:49:58.754Z,61.01
2019-04-11T08:52:27.942Z,61.18
2019-04-11T08:54:57.995Z,61.18
2019-04-11T08:57:28.968Z,60.72
2019-04-11T09:02:49.182Z,60.11
2019-04-11T09:05:22.723Z,59.68
2019-04-11T09:07:52.057Z,59.07
2019-04-11T09:10:24.205Z,59.02
2019-04-11T09:12:53.066Z,59.08
2019-04-11T09:15:26.607Z,59.46
2019-04-11T09:17:59.059Z,60.05
2019-04-11T09:20:34.434Z,60.23
2019-04-11T09:23:01.649Z,60.13
2019-04-11T09:25:45.426Z,60.21
2019-04-11T09:28:13.718Z,60.06
2019-04-11T09:30:41.233Z,59.85
2019-04-11T09:33:12.941Z,59.73
2019-04-11T09:35:41.569Z,59.48
2019-04-11T09:38:09.036Z,59.58
2019-04-11T09:40:45.884Z,60.03
2019-04-11T09:43:15.840Z,60.15
2019-04-11T09:45:48.318Z,60.19
2019-04-11T09:48:22.316Z,60.40
2019-04-11T09:50:48.981Z,59.89
2019-04-11T09:53:16.304Z,59.07
2019-04-11T09:55:46.391Z,57.89
2019-04-11T09:58:19.636Z,56.60
2019-04-11T10:00:47.792Z,55.95
2019-04-11T10:03:17.707Z,55.39
2019-04-11T10:05:50.308Z,54.56
2019-04-11T10:08:16.894Z,53.96
2019-04-11T10:10:48.995Z,53.41
2019-04-11T10:13:26.900Z,53.65
2019-04-11T10:18:55.679Z,53.21
2019-04-11T10:21:23.021Z,53.54
2019-04-11T10:26:49.998Z,53.82
2019-04-11T10:29:33.359Z,53.99
2019-04-11T10:32:01.049Z,54.25
2019-04-11T10:34:43.962Z,54.42
2019-04-11T10:37:11.785Z,53.79
2019-04-11T10:39:44.829Z,52.77
2019-04-11T10:42:12.699Z,52.47
2019-04-11T10:44:45.755Z,52.79
2019-04-11T10:47:16.460Z,52.18
2019-04-11T10:52:42.448Z,49.93
2019-04-11T10:55:09.431Z,49.59
2019-04-11T10:57:40.413Z,49.87
2019-04-11T11:00:14.183Z,49.21
2019-04-11T11:02:41.807Z,49.69
2019-04-11T11:05:09.335Z,50.02
2019-04-11T11:07:37.058Z,50.32
2019-04-11T11:10:04.543Z,50.33
2019-04-11T11:12:32.974Z,49.81
2019-04-11T11:15:05.155Z,48.63
2019-04-11T11:17:54.535Z,48.49
2019-04-11T11:23:16.796Z,47.20
2019-04-11T11:28:55.229Z,46.54
2019-04-11T11:31:28.156Z,46.44
2019-04-11T11:33:56.538Z,45.78
2019-04-11T11:39:15.308Z,44.75
2019-04-11T11:41:46.888Z,43.88
2019-04-11T11:44:14.068Z,44.37
2019-04-11T11:46:44.530Z,45.10
2019-04-11T11:49:12.099Z,45.54
2019-04-11T11:51:41.505Z,46.00
2019-04-11T11:54:13.770Z,46.50
2019-04-11T11:56:42.282Z,46.11
2019-04-11T11:59:25.312Z,46.35
2019-04-11T12:01:54.274Z,46.13
2019-04-11T12:04:27.714Z,45.27
2019-04-11T12:06:59.762Z,45.45
2019-04-11T12:09:22.406Z,45.77
2019-04-11T12:15:01.494Z,44.30
2019-04-11T12:17:32.478Z,43.58
2019-04-11T12:20:09.764Z,43.20
2019-04-11T12:22:30.714Z,43.99
2019-04-11T12:24:58.787Z,44.73
2019-04-11T12:27:26.803Z,44.76
2019-04-11T12:30:09.559Z,45.21
2019-04-11T12:32:46.670Z,45.42
2019-04-11T12:35:19.890Z,45.52
2019-04-11T12:37:50.352Z,45.84
2019-04-11T12:40:19.727Z,46.35
2019-04-11T12:42:47.205Z,46.87
2019-04-11T12:45:20.998Z,47.02
2019-04-11T12:47:48.713Z,46.55
2019-04-11T12:53:09.170Z,44.68
2019-04-11T12:55:54.238Z,44.23
2019-04-11T12:58:25.287Z,44.40
2019-04-11T13:04:01.654Z,44.47
2019-04-11T13:06:35.271Z,45.18
2019-04-11T13:09:02.827Z,45.06
2019-04-11T13:11:30.279Z,44.78
2019-04-11T13:14:12.616Z,44.32
2019-04-11T13:16:40.039Z,43.28
2019-04-11T13:22:05.933Z,41.10
2019-04-11T13:24:33.383Z,40.52
2019-04-11T13:27:13.475Z,40.50
2019-04-11T13:29:57.691Z,40.90
2019-04-11T13:32:29.497Z,40.81
2019-04-11T13:35:12.670Z,40.77
2019-04-11T13:40:53.900Z,40.72
2019-04-11T13:43:36.896Z,40.61
2019-04-11T13:46:25.285Z,40.22
2019-04-11T13:48:57.149Z,40.18
2019-04-11T13:51:38.338Z,39.98
2019-04-11T13:54:11.395Z,40.92
2019-04-11T13:56:45.186Z,41.21
2019-04-11T13:59:11.798Z,41.38
2019-04-11T14:01:39.209Z,41.67
2019-04-11T14:04:08.688Z,41.36
2019-04-11T14:06:35.055Z,41.19
2019-04-11T14:09:04.290Z,41.17
2019-04-11T14:11:33.754Z,41.89
2019-04-11T14:13:59.153Z,41.91
2019-04-11T14:16:26.576Z,41.99
2019-04-11T14:18:54.934Z,42.40
2019-04-11T14:21:22.346Z,42.69
2019-04-11T14:26:46.118Z,42.92
2019-04-11T14:29:15.352Z,43.10
2019-04-11T14:31:46.618Z,43.26
2019-04-11T14:34:19.610Z,43.07
2019-04-11T14:36:47.952Z,43.15
2019-04-11T14:39:31.528Z,43.50
2019-04-11T14:42:18.474Z,43.54
2019-04-11T14:44:45.849Z,43.31
2019-04-11T14:47:17.678Z,43.27
2019-04-11T14:49:45.089Z,43.17
2019-04-11T14:52:16.929Z,43.43
2019-04-11T14:54:42.378Z,43.71
2019-04-11T14:57:16.364Z,44.04
2019-04-11T14:59:43.811Z,44.69
2019-04-11T15:02:25.041Z,44.44
2019-04-11T15:04:58.027Z,44.55
2019-04-11T15:07:25.443Z,45.13
2019-04-11T15:09:55.912Z,45.83
2019-04-11T15:12:25.698Z,46.28
2019-04-11T15:17:49.069Z,45.14
2019-04-11T15:20:22.334Z,45.05
2019-04-11T15:22:51.707Z,45.12
2019-04-11T15:28:17.684Z,45.54
2019-04-11T15:30:49.386Z,45.50
2019-04-11T15:33:20.187Z,45.77
2019-04-11T15:35:48.472Z,45.68
2019-04-11T15:38:21.616Z,45.85
2019-04-11T15:40:49.035Z,45.93
2019-04-11T15:43:22.111Z,45.81
2019-04-11T15:45:49.567Z,45.77
2019-04-11T15:48:23.577Z,45.40
2019-04-11T15:51:05.884Z,45.54
2019-04-11T15:56:20.724Z,45.85
2019-04-11T15:58:48.192Z,46.04
2019-04-11T16:01:21.149Z,46.65
2019-04-11T16:03:48.556Z,46.89
2019-04-11T16:06:21.465Z,47.32
2019-04-11T16:08:48.884Z,47.74
2019-04-11T16:11:16.788Z,48.13
2019-04-11T16:13:46.123Z,48.55
2019-04-11T16:16:13.546Z,48.84
2019-04-11T16:18:47.148Z,49.06
2019-04-11T16:21:18.643Z,48.73
2019-04-11T16:26:35.862Z,49.20
2019-04-11T16:29:19.972Z,48.96
2019-04-11T16:31:47.378Z,48.80
2019-04-11T16:34:18.322Z,48.76
2019-04-11T16:36:45.737Z,48.74
2019-04-11T16:39:28.791Z,49.13
2019-04-11T16:41:56.270Z,49.57
2019-04-11T16:44:26.097Z,49.92
2019-04-11T16:46:59.072Z,50.11
2019-04-11T16:49:26.871Z,50.68
2019-04-11T16:51:54.388Z,51.15
2019-04-11T16:54:22.757Z,51.58
2019-04-11T16:56:49.713Z,51.79
2019-04-11T16:59:17.818Z,52.00
2019-04-11T17:01:44.745Z,52.26
2019-04-11T17:04:12.155Z,52.67
2019-04-11T17:06:50.290Z,52.84
2019-04-11T17:09:18.718Z,53.07
2019-04-11T17:11:46.145Z,52.75
2019-04-11T17:14:13.531Z,53.00
2019-04-11T17:16:41.616Z,53.32
2019-04-11T17:19:11.676Z,53.73
2019-04-11T17:21:43.163Z,54.29
2019-04-11T17:24:03.938Z,54.98
2019-04-11T17:26:31.395Z,55.30
2019-04-11T17:28:58.790Z,55.20
2019-04-11T17:31:26.650Z,55.27
2019-04-11T17:33:53.671Z,55.64
2019-04-11T17:36:21.128Z,56.23
2019-04-11T17:38:48.566Z,56.59
2019-04-11T17:41:15.970Z,56.80
2019-04-11T17:43:46.767Z,57.10
2019-04-11T17:46:11.991Z,57.41
2019-04-11T17:48:39.388Z,57.39
2019-04-11T17:51:09.452Z,57.56
2019-04-11T17:53:34.325Z,57.73
2019-04-11T17:56:01.728Z,57.91
2019-04-11T17:58:29.148Z,57.81
2019-04-11T18:00:57.094Z,57.77
2019-04-11T18:03:24.558Z,57.64
2019-04-11T18:05:51.966Z,57.52
2019-04-11T18:08:20.217Z,57.25
2019-04-11T18:10:46.804Z,57.14
2019-04-11T18:13:14.193Z,57.08
2019-04-11T18:15:41.629Z,57.19
2019-04-11T18:18:09.031Z,57.33
2019-04-11T18:20:37.076Z,57.57
2019-04-11T18:23:03.873Z,57.67
2019-04-11T18:25:31.430Z,57.97
2019-04-11T18:27:58.871Z,58.36
2019-04-11T18:30:26.299Z,58.58
2019-04-11T18:32:53.735Z,58.69
2019-04-11T18:35:21.148Z,58.81
2019-04-11T18:37:48.764Z,58.94
2019-04-11T18:40:16.170Z,59.12
2019-04-11T18:42:43.610Z,59.11
2019-04-11T18:45:11.023Z,59.16
2019-04-11T18:47:38.440Z,59.21
2019-04-11T18:50:05.942Z,59.10
2019-04-11T18:52:33.409Z,59.07
2019-04-11T18:55:00.840Z,59.09
2019-04-11T18:57:28.279Z,58.96
2019-04-11T18:59:55.682Z,58.66
2019-04-11T19:02:23.102Z,58.53
2019-04-11T19:04:50.540Z,58.51
2019-04-11T19:07:27.309Z,58.76
2019-04-11T19:09:45.395Z,58.83
2019-04-11T19:12:15.620Z,58.91
2019-04-11T19:14:40.246Z,58.91
2019-04-11T19:17:07.682Z,59.01
2019-04-11T19:19:35.094Z,58.95
2019-04-11T19:22:02.515Z,58.69
2019-04-11T19:24:35.329Z,58.72
2019-04-11T19:26:57.444Z,58.78
2019-04-11T19:29:25.588Z,58.80
2019-04-11T19:31:52.282Z,58.71
2019-04-11T19:34:19.731Z,58.67
2019-04-11T19:36:47.151Z,58.58
2019-04-11T19:39:14.689Z,58.68
2019-04-11T19:41:41.999Z,58.55
2019-04-11T19:44:09.410Z,58.29
2019-04-11T19:46:36.816Z,58.25
2019-04-11T19:49:04.260Z,58.34
2019-04-11T19:51:31.686Z,58.36
2019-04-11T19:54:02.915Z,58.48
2019-04-11T19:56:31.528Z,58.70
2019-04-11T19:58:58.932Z,58.77
2019-04-11T20:01:26.595Z,58.77
2019-04-11T20:03:54.666Z,58.80
2019-04-11T20:06:21.477Z,58.88
2019-04-11T20:08:48.904Z,58.86
2019-04-11T20:11:16.333Z,58.82
2019-04-11T20:13:43.893Z,59.04
2019-04-11T20:16:12.501Z,59.14
2019-04-11T20:18:49.955Z,59.28
2019-04-11T20:21:07.507Z,59.44
2019-04-11T20:23:33.503Z,59.33
2019-04-11T20:26:01.486Z,59.41
2019-04-11T20:28:28.903Z,59.59
2019-04-11T20:30:56.327Z,59.30
2019-04-11T20:33:27.278Z,59.30
2019-04-11T20:35:51.236Z,59.19
2019-04-11T20:38:18.646Z,58.92
2019-04-11T20:40:46.061Z,58.69
2019-04-11T20:43:13.485Z,58.18
2019-04-11T20:45:40.895Z,58.12
2019-04-11T20:48:08.291Z,57.85
2019-04-11T20:50:35.713Z,57.96
2019-04-11T20:53:12.039Z,57.91
2019-04-11T20:55:31.552Z,57.81
2019-04-11T20:57:58.963Z,57.84
2019-04-11T21:00:26.399Z,57.76
2019-04-11T21:02:58.083Z,57.49
2019-04-11T21:05:21.234Z,57.36
2019-04-11T21:07:48.709Z,57.19
2019-04-11T21:10:16.131Z,56.80
2019-04-11T21:12:43.546Z,56.69
2019-04-11T21:15:10.968Z,56.94
2019-04-11T21:17:38.389Z,57.21
2019-04-11T21:20:05.785Z,57.32
2019-04-11T21:22:33.223Z,57.54
2019-04-11T21:25:00.685Z,57.73
2019-04-11T21:27:28.924Z,57.62
2019-04-11T21:29:59.779Z,57.57
2019-04-11T21:32:22.933Z,57.70
2019-04-11T21:34:50.378Z,57.68
2019-04-11T21:37:17.854Z,57.79
2019-04-11T21:39:45.250Z,57.46
2019-04-11T21:42:12.671Z,57.54
2019-04-11T21:44:40.075Z,57.55
2019-04-11T21:47:07.995Z,57.56
2019-04-11T21:49:36.955Z,57.62
2019-04-11T21:52:03.218Z,57.80
2019-04-11T21:54:29.777Z,57.81
2019-04-11T21:56:57.225Z,57.82
2019-04-11T21:59:24.619Z,57.73
2019-04-11T22:01:54.120Z,57.65
2019-04-11T22:04:19.497Z,57.74
2019-04-11T22:06:46.927Z,57.84
2019-04-11T22:09:14.334Z,57.90
2019-04-11T22:11:41.749Z,58.04
2019-04-11T22:14:11.271Z,58.21
2019-04-11T22:16:36.588Z,58.55
2019-04-11T22:19:04.095Z,58.60
2019-04-11T22:21:31.711Z,58.63
2019-04-11T22:23:59.286Z,58.93
2019-04-11T22:26:26.721Z,58.81
2019-04-11T22:28:55.094Z,58.88
2019-04-11T22:31:24.729Z,58.95
2019-04-11T22:33:59.712Z,58.82
2019-04-11T22:36:27.858Z,58.82
2019-04-11T22:38:54.538Z,58.86
2019-04-11T22:41:22.010Z,58.90
2019-04-11T22:43:49.422Z,58.86
2019-04-11T22:46:20.984Z,59.00
2019-04-11T22:48:44.353Z,59.13
2019-04-11T22:51:11.966Z,59.21
2019-04-11T22:53:40.762Z,59.37
2019-04-11T22:56:06.574Z,59.50
2019-04-11T22:58:33.981Z,59.39
2019-04-11T23:01:01.386Z,59.30
2019-04-11T23:03:28.822Z,59.24
2019-04-11T23:05:56.215Z,59.19
2019-04-11T23:08:23.622Z,59.23
2019-04-11T23:10:51.040Z,58.99
2019-04-11T23:13:18.444Z,58.96
2019-04-11T23:15:45.863Z,58.72
2019-04-11T23:18:14.053Z,58.50
2019-04-11T23:20:43.809Z,58.45
2019-04-11T23:23:08.104Z,58.36
2019-04-11T23:25:35.527Z,58.60
2019-04-11T23:28:02.939Z,58.84
2019-04-11T23:30:30.355Z,58.82
2019-04-11T23:32:57.778Z,58.86
2019-04-11T23:35:25.178Z,58.94
2019-04-11T23:37:52.653Z,59.07
2019-04-11T23:40:20.980Z,58.99
2019-04-11T23:42:47.820Z,59.02
2019-04-11T23:45:14.404Z,59.02
2019-04-11T23:47:41.817Z,59.02
2019-04-11T23:50:09.224Z,59.09
2019-04-11T23:52:36.663Z,59.30
2019-04-11T23:55:04.095Z,59.41
2019-04-11T23:57:31.827Z,59.49
2019-04-11T23:59:59.782Z,59.39
